sensor_id;sensor_type;location;lat;lon;timestamp;P1;durP1;ratioP1;P2;durP2;ratioP2
73791;SDS011;62122;41.112;16.694;2022-08-19T00:01:14;12.57;;;4.10;;
73791;SDS011;62122;41.112;16.694;2022-08-19T00:04:20;13.85;;;4.20;;
73791;SDS011;62122;41.112;16.694;2022-08-19T00:07:25;13.85;;;3.97;;
73791;SDS011;62122;41.112;16.694;2022-08-19T00:10:29;11.90;;;3.75;;
73791;SDS011;62122;41.112;16.694;2022-08-19T00:13:33;14.30;;;3.85;;
73791;SDS011;62122;41.112;16.694;2022-08-19T00:16:37;9.63;;;4.15;;
73791;SDS011;62122;41.112;16.694;2022-08-19T00:19:42;13.93;;;4.25;;
73791;SDS011;62122;41.112;16.694;2022-08-19T00:22:46;14.50;;;3.90;;
73791;SDS011;62122;41.112;16.694;2022-08-19T00:25:51;13.75;;;4.60;;
73791;SDS011;62122;41.112;16.694;2022-08-19T00:28:55;14.45;;;4.20;;
73791;SDS011;62122;41.112;16.694;2022-08-19T00:31:59;17.05;;;4.53;;
73791;SDS011;62122;41.112;16.694;2022-08-19T00:35:03;14.77;;;4.53;;
73791;SDS011;62122;41.112;16.694;2022-08-19T00:38:07;16.02;;;5.03;;
73791;SDS011;62122;41.112;16.694;2022-08-19T00:41:15;15.23;;;4.57;;
73791;SDS011;62122;41.112;16.694;2022-08-19T00:44:23;18.67;;;4.47;;
73791;SDS011;62122;41.112;16.694;2022-08-19T00:47:30;15.18;;;3.50;;
73791;SDS011;62122;41.112;16.694;2022-08-19T00:50:34;15.10;;;3.85;;
73791;SDS011;62122;41.112;16.694;2022-08-19T00:53:38;19.70;;;4.82;;
73791;SDS011;62122;41.112;16.694;2022-08-19T00:56:43;23.77;;;4.60;;
73791;SDS011;62122;41.112;16.694;2022-08-19T00:59:49;14.15;;;4.22;;
73791;SDS011;62122;41.112;16.694;2022-08-19T01:02:56;16.92;;;4.05;;
73791;SDS011;62122;41.112;16.694;2022-08-19T01:06:00;18.13;;;3.90;;
73791;SDS011;62122;41.112;16.694;2022-08-19T01:09:05;21.92;;;3.55;;
73791;SDS011;62122;41.112;16.694;2022-08-19T01:12:09;19.60;;;4.55;;
73791;SDS011;62122;41.112;16.694;2022-08-19T01:15:14;21.05;;;3.58;;
73791;SDS011;62122;41.112;16.694;2022-08-19T01:18:21;21.88;;;4.55;;
73791;SDS011;62122;41.112;16.694;2022-08-19T01:21:44;23.63;;;4.28;;
73791;SDS011;62122;41.112;16.694;2022-08-19T01:25:02;16.88;;;4.18;;
73791;SDS011;62122;41.112;16.694;2022-08-19T01:28:08;14.50;;;3.65;;
73791;SDS011;62122;41.112;16.694;2022-08-19T01:31:20;20.13;;;4.95;;
73791;SDS011;62122;41.112;16.694;2022-08-19T01:34:30;18.30;;;4.07;;
73791;SDS011;62122;41.112;16.694;2022-08-19T01:41:11;18.15;;;4.47;;
73791;SDS011;62122;41.112;16.694;2022-08-19T01:44:16;17.13;;;4.65;;
73791;SDS011;62122;41.112;16.694;2022-08-19T01:47:21;21.90;;;4.65;;
73791;SDS011;62122;41.112;16.694;2022-08-19T01:50:25;22.13;;;4.82;;
73791;SDS011;62122;41.112;16.694;2022-08-19T01:53:29;19.13;;;4.25;;
73791;SDS011;62122;41.112;16.694;2022-08-19T01:56:33;15.80;;;3.95;;
73791;SDS011;62122;41.112;16.694;2022-08-19T01:59:39;22.02;;;4.00;;
73791;SDS011;62122;41.112;16.694;2022-08-19T02:02:45;21.60;;;3.90;;
73791;SDS011;62122;41.112;16.694;2022-08-19T02:05:53;20.85;;;4.45;;
73791;SDS011;62122;41.112;16.694;2022-08-19T02:08:59;19.88;;;4.30;;
73791;SDS011;62122;41.112;16.694;2022-08-19T02:12:04;14.50;;;3.90;;
73791;SDS011;62122;41.112;16.694;2022-08-19T02:15:11;18.98;;;4.25;;
73791;SDS011;62122;41.112;16.694;2022-08-19T02:18:15;24.30;;;3.95;;
73791;SDS011;62122;41.112;16.694;2022-08-19T02:21:21;21.13;;;3.77;;
73791;SDS011;62122;41.112;16.694;2022-08-19T02:24:26;13.45;;;3.53;;
73791;SDS011;62122;41.112;16.694;2022-08-19T02:27:31;16.10;;;3.92;;
73791;SDS011;62122;41.112;16.694;2022-08-19T02:30:37;16.70;;;4.38;;
73791;SDS011;62122;41.112;16.694;2022-08-19T02:33:42;20.83;;;4.05;;
73791;SDS011;62122;41.112;16.694;2022-08-19T02:36:46;16.13;;;4.28;;
73791;SDS011;62122;41.112;16.694;2022-08-19T02:39:50;20.17;;;4.15;;
73791;SDS011;62122;41.112;16.694;2022-08-19T02:42:55;18.63;;;4.45;;
73791;SDS011;62122;41.112;16.694;2022-08-19T02:46:00;22.83;;;4.00;;
73791;SDS011;62122;41.112;16.694;2022-08-19T02:49:06;20.35;;;4.88;;
73791;SDS011;62122;41.112;16.694;2022-08-19T02:52:11;16.50;;;3.90;;
73791;SDS011;62122;41.112;16.694;2022-08-19T02:55:15;20.65;;;4.47;;
73791;SDS011;62122;41.112;16.694;2022-08-19T02:58:20;19.33;;;3.72;;
73791;SDS011;62122;41.112;16.694;2022-08-19T03:01:29;16.88;;;4.10;;
73791;SDS011;62122;41.112;16.694;2022-08-19T03:04:35;17.30;;;4.38;;
73791;SDS011;62122;41.112;16.694;2022-08-19T03:07:40;25.17;;;4.75;;
73791;SDS011;62122;41.112;16.694;2022-08-19T03:10:44;18.25;;;4.55;;
73791;SDS011;62122;41.112;16.694;2022-08-19T03:13:50;19.23;;;4.63;;
73791;SDS011;62122;41.112;16.694;2022-08-19T03:16:54;20.50;;;4.43;;
73791;SDS011;62122;41.112;16.694;2022-08-19T03:19:58;15.27;;;4.20;;
73791;SDS011;62122;41.112;16.694;2022-08-19T03:23:01;20.92;;;3.97;;
73791;SDS011;62122;41.112;16.694;2022-08-19T03:26:05;23.88;;;5.38;;
73791;SDS011;62122;41.112;16.694;2022-08-19T03:29:10;15.45;;;3.65;;
73791;SDS011;62122;41.112;16.694;2022-08-19T03:32:15;20.90;;;5.03;;
73791;SDS011;62122;41.112;16.694;2022-08-19T03:35:20;25.90;;;4.35;;
73791;SDS011;62122;41.112;16.694;2022-08-19T03:38:24;29.60;;;4.28;;
73791;SDS011;62122;41.112;16.694;2022-08-19T03:41:31;16.92;;;4.00;;
73791;SDS011;62122;41.112;16.694;2022-08-19T03:44:39;15.15;;;4.05;;
73791;SDS011;62122;41.112;16.694;2022-08-19T03:47:45;13.73;;;3.60;;
73791;SDS011;62122;41.112;16.694;2022-08-19T03:50:50;19.15;;;4.22;;
73791;SDS011;62122;41.112;16.694;2022-08-19T03:53:55;24.05;;;4.75;;
73791;SDS011;62122;41.112;16.694;2022-08-19T03:56:59;19.38;;;5.07;;
73791;SDS011;62122;41.112;16.694;2022-08-19T04:00:03;17.73;;;4.00;;
73791;SDS011;62122;41.112;16.694;2022-08-19T04:03:10;17.88;;;4.53;;
73791;SDS011;62122;41.112;16.694;2022-08-19T04:09:18;22.42;;;5.20;;
73791;SDS011;62122;41.112;16.694;2022-08-19T04:12:23;18.17;;;5.47;;
73791;SDS011;62122;41.112;16.694;2022-08-19T04:15:27;25.17;;;6.15;;
73791;SDS011;62122;41.112;16.694;2022-08-19T04:18:37;21.88;;;5.30;;
73791;SDS011;62122;41.112;16.694;2022-08-19T04:21:44;18.75;;;4.90;;
73791;SDS011;62122;41.112;16.694;2022-08-19T04:24:49;21.88;;;4.35;;
73791;SDS011;62122;41.112;16.694;2022-08-19T04:27:53;22.55;;;4.97;;
73791;SDS011;62122;41.112;16.694;2022-08-19T04:30:57;22.83;;;5.55;;
73791;SDS011;62122;41.112;16.694;2022-08-19T04:34:03;18.75;;;4.78;;
73791;SDS011;62122;41.112;16.694;2022-08-19T04:37:09;18.20;;;4.65;;
73791;SDS011;62122;41.112;16.694;2022-08-19T04:40:16;22.92;;;6.35;;
73791;SDS011;62122;41.112;16.694;2022-08-19T04:43:38;21.55;;;4.78;;
73791;SDS011;62122;41.112;16.694;2022-08-19T04:46:42;19.02;;;5.40;;
73791;SDS011;62122;41.112;16.694;2022-08-19T04:49:46;22.05;;;5.70;;
73791;SDS011;62122;41.112;16.694;2022-08-19T04:52:50;23.85;;;6.47;;
73791;SDS011;62122;41.112;16.694;2022-08-19T04:55:56;20.70;;;5.97;;
73791;SDS011;62122;41.112;16.694;2022-08-19T04:59:01;26.77;;;6.18;;
73791;SDS011;62122;41.112;16.694;2022-08-19T05:02:08;24.70;;;6.38;;
73791;SDS011;62122;41.112;16.694;2022-08-19T05:05:13;27.88;;;6.75;;
73791;SDS011;62122;41.112;16.694;2022-08-19T05:08:18;28.73;;;7.60;;
73791;SDS011;62122;41.112;16.694;2022-08-19T05:11:26;26.52;;;7.93;;
73791;SDS011;62122;41.112;16.694;2022-08-19T05:14:32;25.77;;;6.28;;
73791;SDS011;62122;41.112;16.694;2022-08-19T05:17:37;20.02;;;5.38;;
73791;SDS011;62122;41.112;16.694;2022-08-19T05:20:40;22.88;;;5.47;;
73791;SDS011;62122;41.112;16.694;2022-08-19T05:24:03;21.27;;;6.20;;
73791;SDS011;62122;41.112;16.694;2022-08-19T05:27:12;22.40;;;5.00;;
73791;SDS011;62122;41.112;16.694;2022-08-19T05:30:18;25.58;;;6.50;;
73791;SDS011;62122;41.112;16.694;2022-08-19T05:33:22;20.25;;;6.68;;
73791;SDS011;62122;41.112;16.694;2022-08-19T05:36:28;22.98;;;7.03;;
73791;SDS011;62122;41.112;16.694;2022-08-19T05:39:38;20.52;;;6.82;;
73791;SDS011;62122;41.112;16.694;2022-08-19T05:42:42;25.13;;;6.60;;
73791;SDS011;62122;41.112;16.694;2022-08-19T05:45:46;19.98;;;7.20;;
73791;SDS011;62122;41.112;16.694;2022-08-19T05:48:50;21.48;;;6.70;;
73791;SDS011;62122;41.112;16.694;2022-08-19T05:51:55;20.50;;;6.47;;
73791;SDS011;62122;41.112;16.694;2022-08-19T05:54:59;21.30;;;6.22;;
73791;SDS011;62122;41.112;16.694;2022-08-19T05:58:03;25.10;;;7.30;;
73791;SDS011;62122;41.112;16.694;2022-08-19T06:01:12;21.75;;;6.50;;
73791;SDS011;62122;41.112;16.694;2022-08-19T06:04:21;25.35;;;6.80;;
73791;SDS011;62122;41.112;16.694;2022-08-19T06:07:26;23.88;;;7.03;;
73791;SDS011;62122;41.112;16.694;2022-08-19T06:10:30;21.90;;;6.47;;
73791;SDS011;62122;41.112;16.694;2022-08-19T06:13:35;18.77;;;5.70;;
73791;SDS011;62122;41.112;16.694;2022-08-19T06:16:39;23.65;;;6.85;;
73791;SDS011;62122;41.112;16.694;2022-08-19T06:19:45;22.13;;;5.47;;
73791;SDS011;62122;41.112;16.694;2022-08-19T06:22:49;24.65;;;5.85;;
73791;SDS011;62122;41.112;16.694;2022-08-19T06:25:54;28.90;;;6.13;;
73791;SDS011;62122;41.112;16.694;2022-08-19T06:28:58;28.43;;;5.77;;
73791;SDS011;62122;41.112;16.694;2022-08-19T06:32:02;20.08;;;5.57;;
73791;SDS011;62122;41.112;16.694;2022-08-19T06:35:07;22.55;;;5.90;;
73791;SDS011;62122;41.112;16.694;2022-08-19T06:38:13;23.23;;;5.45;;
73791;SDS011;62122;41.112;16.694;2022-08-19T06:41:43;11.80;;;5.72;;
73791;SDS011;62122;41.112;16.694;2022-08-19T06:44:53;22.07;;;5.63;;
73791;SDS011;62122;41.112;16.694;2022-08-19T06:47:58;19.48;;;5.03;;
73791;SDS011;62122;41.112;16.694;2022-08-19T06:51:02;18.73;;;5.57;;
73791;SDS011;62122;41.112;16.694;2022-08-19T06:54:09;22.95;;;5.25;;
73791;SDS011;62122;41.112;16.694;2022-08-19T06:57:15;21.10;;;6.00;;
73791;SDS011;62122;41.112;16.694;2022-08-19T07:00:19;22.87;;;6.57;;
73791;SDS011;62122;41.112;16.694;2022-08-19T07:03:22;29.92;;;6.97;;
73791;SDS011;62122;41.112;16.694;2022-08-19T07:06:26;25.00;;;7.05;;
73791;SDS011;62122;41.112;16.694;2022-08-19T07:09:30;27.95;;;6.35;;
73791;SDS011;62122;41.112;16.694;2022-08-19T07:12:36;20.30;;;5.95;;
73791;SDS011;62122;41.112;16.694;2022-08-19T07:15:40;24.97;;;5.57;;
73791;SDS011;62122;41.112;16.694;2022-08-19T07:18:43;25.48;;;5.97;;
73791;SDS011;62122;41.112;16.694;2022-08-19T07:21:48;23.00;;;5.88;;
73791;SDS011;62122;41.112;16.694;2022-08-19T07:24:55;24.88;;;6.30;;
73791;SDS011;62122;41.112;16.694;2022-08-19T07:27:59;24.70;;;6.32;;
73791;SDS011;62122;41.112;16.694;2022-08-19T07:31:03;30.63;;;6.37;;
73791;SDS011;62122;41.112;16.694;2022-08-19T07:34:08;26.13;;;5.82;;
73791;SDS011;62122;41.112;16.694;2022-08-19T07:37:13;23.67;;;5.55;;
73791;SDS011;62122;41.112;16.694;2022-08-19T07:40:17;28.30;;;7.05;;
73791;SDS011;62122;41.112;16.694;2022-08-19T07:43:21;23.88;;;6.43;;
73791;SDS011;62122;41.112;16.694;2022-08-19T07:46:30;19.13;;;5.78;;
73791;SDS011;62122;41.112;16.694;2022-08-19T07:49:34;28.90;;;6.57;;
73791;SDS011;62122;41.112;16.694;2022-08-19T07:52:39;29.83;;;7.13;;
73791;SDS011;62122;41.112;16.694;2022-08-19T07:55:43;25.70;;;7.13;;
73791;SDS011;62122;41.112;16.694;2022-08-19T07:58:49;24.70;;;6.15;;
73791;SDS011;62122;41.112;16.694;2022-08-19T08:01:55;26.20;;;6.47;;
73791;SDS011;62122;41.112;16.694;2022-08-19T08:05:00;27.92;;;5.80;;
73791;SDS011;62122;41.112;16.694;2022-08-19T08:08:24;24.25;;;6.20;;
73791;SDS011;62122;41.112;16.694;2022-08-19T08:11:48;22.60;;;6.10;;
73791;SDS011;62122;41.112;16.694;2022-08-19T08:14:53;22.58;;;6.47;;
73791;SDS011;62122;41.112;16.694;2022-08-19T08:18:00;29.17;;;7.15;;
73791;SDS011;62122;41.112;16.694;2022-08-19T08:21:05;31.17;;;6.13;;
73791;SDS011;62122;41.112;16.694;2022-08-19T08:24:09;29.80;;;7.35;;
73791;SDS011;62122;41.112;16.694;2022-08-19T08:27:13;29.38;;;6.53;;
73791;SDS011;62122;41.112;16.694;2022-08-19T08:30:20;29.77;;;6.60;;
73791;SDS011;62122;41.112;16.694;2022-08-19T08:33:27;25.53;;;7.07;;
73791;SDS011;62122;41.112;16.694;2022-08-19T08:36:35;25.38;;;6.13;;
73791;SDS011;62122;41.112;16.694;2022-08-19T08:39:44;26.77;;;6.28;;
73791;SDS011;62122;41.112;16.694;2022-08-19T08:42:55;33.55;;;7.22;;
73791;SDS011;62122;41.112;16.694;2022-08-19T08:46:13;29.45;;;6.85;;
73791;SDS011;62122;41.112;16.694;2022-08-19T08:52:43;26.77;;;6.55;;
73791;SDS011;62122;41.112;16.694;2022-08-19T08:55:49;30.40;;;6.63;;
73791;SDS011;62122;41.112;16.694;2022-08-19T08:59:02;27.10;;;7.07;;
73791;SDS011;62122;41.112;16.694;2022-08-19T09:02:12;24.67;;;6.03;;
73791;SDS011;62122;41.112;16.694;2022-08-19T09:05:17;28.13;;;7.00;;
73791;SDS011;62122;41.112;16.694;2022-08-19T09:08:27;23.33;;;6.15;;
73791;SDS011;62122;41.112;16.694;2022-08-19T09:15:13;30.90;;;6.47;;
73791;SDS011;62122;41.112;16.694;2022-08-19T09:18:19;24.63;;;6.22;;
73791;SDS011;62122;41.112;16.694;2022-08-19T09:21:23;35.03;;;6.35;;
73791;SDS011;62122;41.112;16.694;2022-08-19T09:24:28;36.80;;;8.00;;
73791;SDS011;62122;41.112;16.694;2022-08-19T09:27:32;34.38;;;7.53;;
73791;SDS011;62122;41.112;16.694;2022-08-19T09:30:40;28.50;;;8.15;;
73791;SDS011;62122;41.112;16.694;2022-08-19T09:33:45;31.23;;;7.10;;
73791;SDS011;62122;41.112;16.694;2022-08-19T09:36:50;28.08;;;7.32;;
73791;SDS011;62122;41.112;16.694;2022-08-19T09:39:56;31.50;;;6.65;;
73791;SDS011;62122;41.112;16.694;2022-08-19T09:43:01;24.88;;;6.75;;
73791;SDS011;62122;41.112;16.694;2022-08-19T09:46:05;35.15;;;7.45;;
73791;SDS011;62122;41.112;16.694;2022-08-19T09:49:12;28.98;;;7.10;;
73791;SDS011;62122;41.112;16.694;2022-08-19T09:52:17;33.13;;;6.80;;
73791;SDS011;62122;41.112;16.694;2022-08-19T09:55:21;31.88;;;7.22;;
73791;SDS011;62122;41.112;16.694;2022-08-19T09:58:25;29.58;;;7.22;;
73791;SDS011;62122;41.112;16.694;2022-08-19T10:01:31;40.55;;;7.63;;
73791;SDS011;62122;41.112;16.694;2022-08-19T10:04:35;31.95;;;6.63;;
73791;SDS011;62122;41.112;16.694;2022-08-19T10:07:58;27.57;;;6.17;;
73791;SDS011;62122;41.112;16.694;2022-08-19T10:11:04;28.45;;;6.05;;
73791;SDS011;62122;41.112;16.694;2022-08-19T10:14:09;25.23;;;5.78;;
73791;SDS011;62122;41.112;16.694;2022-08-19T10:17:13;26.70;;;6.10;;
73791;SDS011;62122;41.112;16.694;2022-08-19T10:20:17;25.23;;;5.55;;
73791;SDS011;62122;41.112;16.694;2022-08-19T10:23:21;22.67;;;5.80;;
73791;SDS011;62122;41.112;16.694;2022-08-19T10:26:26;23.92;;;5.43;;
73791;SDS011;62122;41.112;16.694;2022-08-19T10:29:32;27.02;;;6.45;;
73791;SDS011;62122;41.112;16.694;2022-08-19T10:32:37;23.27;;;5.53;;
73791;SDS011;62122;41.112;16.694;2022-08-19T10:35:42;25.20;;;5.72;;
73791;SDS011;62122;41.112;16.694;2022-08-19T10:38:48;23.00;;;5.57;;
73791;SDS011;62122;41.112;16.694;2022-08-19T10:41:53;28.08;;;6.80;;
73791;SDS011;62122;41.112;16.694;2022-08-19T10:45:00;21.13;;;5.90;;
73791;SDS011;62122;41.112;16.694;2022-08-19T10:48:05;30.20;;;6.50;;
73791;SDS011;62122;41.112;16.694;2022-08-19T10:51:09;25.65;;;7.93;;
73791;SDS011;62122;41.112;16.694;2022-08-19T10:54:34;31.87;;;5.97;;
73791;SDS011;62122;41.112;16.694;2022-08-19T10:57:57;32.00;;;6.45;;
73791;SDS011;62122;41.112;16.694;2022-08-19T11:01:00;25.60;;;5.70;;
73791;SDS011;62122;41.112;16.694;2022-08-19T11:04:04;26.17;;;6.00;;
73791;SDS011;62122;41.112;16.694;2022-08-19T11:07:11;22.15;;;6.25;;
73791;SDS011;62122;41.112;16.694;2022-08-19T11:10:15;23.70;;;5.70;;
73791;SDS011;62122;41.112;16.694;2022-08-19T11:13:22;23.77;;;5.90;;
73791;SDS011;62122;41.112;16.694;2022-08-19T11:16:26;26.38;;;6.00;;
73791;SDS011;62122;41.112;16.694;2022-08-19T11:19:33;33.97;;;6.07;;
73791;SDS011;62122;41.112;16.694;2022-08-19T11:22:38;30.00;;;6.68;;
73791;SDS011;62122;41.112;16.694;2022-08-19T11:25:43;26.97;;;6.20;;
73791;SDS011;62122;41.112;16.694;2022-08-19T11:28:48;26.45;;;6.72;;
73791;SDS011;62122;41.112;16.694;2022-08-19T11:31:56;22.65;;;6.88;;
73791;SDS011;62122;41.112;16.694;2022-08-19T11:35:00;26.52;;;6.25;;
73791;SDS011;62122;41.112;16.694;2022-08-19T11:38:04;27.95;;;6.45;;
73791;SDS011;62122;41.112;16.694;2022-08-19T11:41:08;27.53;;;6.10;;
73791;SDS011;62122;41.112;16.694;2022-08-19T11:44:12;24.67;;;6.80;;
73791;SDS011;62122;41.112;16.694;2022-08-19T11:47:17;26.30;;;5.50;;
73791;SDS011;62122;41.112;16.694;2022-08-19T11:50:22;25.52;;;5.47;;
73791;SDS011;62122;41.112;16.694;2022-08-19T11:53:27;19.90;;;5.35;;
73791;SDS011;62122;41.112;16.694;2022-08-19T11:56:33;26.23;;;6.13;;
73791;SDS011;62122;41.112;16.694;2022-08-19T11:59:37;23.15;;;6.22;;
73791;SDS011;62122;41.112;16.694;2022-08-19T12:02:40;21.02;;;5.72;;
73791;SDS011;62122;41.112;16.694;2022-08-19T12:05:46;28.30;;;6.70;;
73791;SDS011;62122;41.112;16.694;2022-08-19T12:08:50;30.48;;;5.90;;
73791;SDS011;62122;41.112;16.694;2022-08-19T12:11:53;31.43;;;5.73;;
73791;SDS011;62122;41.112;16.694;2022-08-19T12:14:58;29.88;;;5.95;;
73791;SDS011;62122;41.112;16.694;2022-08-19T12:18:02;33.08;;;7.25;;
73791;SDS011;62122;41.112;16.694;2022-08-19T12:21:07;29.45;;;5.95;;
73791;SDS011;62122;41.112;16.694;2022-08-19T12:24:13;22.73;;;6.53;;
73791;SDS011;62122;41.112;16.694;2022-08-19T12:27:17;32.63;;;6.33;;
73791;SDS011;62122;41.112;16.694;2022-08-19T12:30:22;22.55;;;5.15;;
73791;SDS011;62122;41.112;16.694;2022-08-19T12:33:26;23.33;;;5.00;;
73791;SDS011;62122;41.112;16.694;2022-08-19T12:36:31;32.00;;;6.05;;
73791;SDS011;62122;41.112;16.694;2022-08-19T12:39:36;24.58;;;5.82;;
73791;SDS011;62122;41.112;16.694;2022-08-19T12:42:44;31.40;;;6.57;;
73791;SDS011;62122;41.112;16.694;2022-08-19T12:45:49;19.20;;;5.43;;
73791;SDS011;62122;41.112;16.694;2022-08-19T12:48:52;26.15;;;5.65;;
73791;SDS011;62122;41.112;16.694;2022-08-19T12:51:57;21.52;;;5.10;;
73791;SDS011;62122;41.112;16.694;2022-08-19T12:55:01;26.35;;;5.60;;
73791;SDS011;62122;41.112;16.694;2022-08-19T12:58:06;22.73;;;5.30;;
73791;SDS011;62122;41.112;16.694;2022-08-19T13:01:11;24.77;;;6.28;;
73791;SDS011;62122;41.112;16.694;2022-08-19T13:04:16;31.38;;;6.88;;
73791;SDS011;62122;41.112;16.694;2022-08-19T13:07:20;27.23;;;6.75;;
73791;SDS011;62122;41.112;16.694;2022-08-19T13:10:26;24.83;;;6.68;;
73791;SDS011;62122;41.112;16.694;2022-08-19T13:13:33;26.87;;;6.43;;
73791;SDS011;62122;41.112;16.694;2022-08-19T13:16:37;22.92;;;6.70;;
73791;SDS011;62122;41.112;16.694;2022-08-19T13:19:41;26.50;;;6.45;;
73791;SDS011;62122;41.112;16.694;2022-08-19T13:22:45;24.70;;;5.50;;
73791;SDS011;62122;41.112;16.694;2022-08-19T13:25:57;28.17;;;6.30;;
73791;SDS011;62122;41.112;16.694;2022-08-19T13:29:02;24.97;;;7.23;;
73791;SDS011;62122;41.112;16.694;2022-08-19T13:32:24;25.08;;;6.10;;
73791;SDS011;62122;41.112;16.694;2022-08-19T13:35:53;20.58;;;6.07;;
73791;SDS011;62122;41.112;16.694;2022-08-19T13:39:00;22.05;;;6.50;;
73791;SDS011;62122;41.112;16.694;2022-08-19T13:42:04;25.83;;;6.07;;
73791;SDS011;62122;41.112;16.694;2022-08-19T13:45:08;27.57;;;6.20;;
73791;SDS011;62122;41.112;16.694;2022-08-19T13:48:13;24.88;;;6.60;;
73791;SDS011;62122;41.112;16.694;2022-08-19T13:51:18;27.77;;;6.25;;
73791;SDS011;62122;41.112;16.694;2022-08-19T13:54:22;26.13;;;6.70;;
73791;SDS011;62122;41.112;16.694;2022-08-19T13:57:26;21.90;;;6.07;;
73791;SDS011;62122;41.112;16.694;2022-08-19T14:00:32;27.37;;;6.77;;
73791;SDS011;62122;41.112;16.694;2022-08-19T14:03:38;24.73;;;6.50;;
73791;SDS011;62122;41.112;16.694;2022-08-19T14:06:41;23.35;;;6.00;;
73791;SDS011;62122;41.112;16.694;2022-08-19T14:09:45;23.67;;;6.32;;
73791;SDS011;62122;41.112;16.694;2022-08-19T14:12:57;22.90;;;6.57;;
73791;SDS011;62122;41.112;16.694;2022-08-19T14:16:11;24.05;;;6.53;;
73791;SDS011;62122;41.112;16.694;2022-08-19T14:19:17;24.40;;;6.30;;
73791;SDS011;62122;41.112;16.694;2022-08-19T14:22:21;23.42;;;6.85;;
73791;SDS011;62122;41.112;16.694;2022-08-19T14:25:26;20.88;;;5.65;;
73791;SDS011;62122;41.112;16.694;2022-08-19T14:28:32;23.55;;;6.60;;
73791;SDS011;62122;41.112;16.694;2022-08-19T14:31:36;27.10;;;7.07;;
73791;SDS011;62122;41.112;16.694;2022-08-19T14:34:40;21.42;;;6.13;;
73791;SDS011;62122;41.112;16.694;2022-08-19T14:37:44;29.10;;;6.88;;
73791;SDS011;62122;41.112;16.694;2022-08-19T14:40:49;23.40;;;7.07;;
73791;SDS011;62122;41.112;16.694;2022-08-19T14:43:55;26.30;;;6.70;;
73791;SDS011;62122;41.112;16.694;2022-08-19T14:47:00;22.10;;;6.47;;
73791;SDS011;62122;41.112;16.694;2022-08-19T14:50:08;24.23;;;6.60;;
73791;SDS011;62122;41.112;16.694;2022-08-19T14:53:15;22.83;;;6.40;;
73791;SDS011;62122;41.112;16.694;2022-08-19T14:56:21;24.63;;;6.95;;
73791;SDS011;62122;41.112;16.694;2022-08-19T14:59:27;26.45;;;7.25;;
73791;SDS011;62122;41.112;16.694;2022-08-19T15:02:31;26.10;;;6.93;;
73791;SDS011;62122;41.112;16.694;2022-08-19T15:05:35;19.67;;;5.93;;
73791;SDS011;62122;41.112;16.694;2022-08-19T15:08:40;25.38;;;6.10;;
73791;SDS011;62122;41.112;16.694;2022-08-19T15:11:45;22.45;;;6.85;;
73791;SDS011;62122;41.112;16.694;2022-08-19T15:14:51;24.58;;;6.63;;
73791;SDS011;62122;41.112;16.694;2022-08-19T15:17:54;20.38;;;6.75;;
73791;SDS011;62122;41.112;16.694;2022-08-19T15:20:59;23.33;;;6.63;;
73791;SDS011;62122;41.112;16.694;2022-08-19T15:24:03;27.40;;;6.90;;
73791;SDS011;62122;41.112;16.694;2022-08-19T15:27:08;22.98;;;5.78;;
73791;SDS011;62122;41.112;16.694;2022-08-19T15:30:17;23.55;;;6.75;;
73791;SDS011;62122;41.112;16.694;2022-08-19T15:33:26;17.97;;;6.47;;
73791;SDS011;62122;41.112;16.694;2022-08-19T15:36:30;29.27;;;6.30;;
73791;SDS011;62122;41.112;16.694;2022-08-19T15:39:34;32.65;;;6.70;;
73791;SDS011;62122;41.112;16.694;2022-08-19T15:42:40;21.60;;;6.00;;
73791;SDS011;62122;41.112;16.694;2022-08-19T15:45:46;22.50;;;5.72;;
73791;SDS011;62122;41.112;16.694;2022-08-19T15:48:50;20.33;;;6.10;;
73791;SDS011;62122;41.112;16.694;2022-08-19T15:51:55;20.75;;;6.75;;
73791;SDS011;62122;41.112;16.694;2022-08-19T15:55:03;21.60;;;6.32;;
73791;SDS011;62122;41.112;16.694;2022-08-19T15:58:10;23.60;;;6.43;;
73791;SDS011;62122;41.112;16.694;2022-08-19T16:01:36;21.52;;;6.15;;
73791;SDS011;62122;41.112;16.694;2022-08-19T16:04:59;22.37;;;6.50;;
73791;SDS011;62122;41.112;16.694;2022-08-19T16:08:21;18.42;;;5.75;;
73791;SDS011;62122;41.112;16.694;2022-08-19T16:11:26;21.58;;;6.03;;
73791;SDS011;62122;41.112;16.694;2022-08-19T16:14:34;18.02;;;6.07;;
73791;SDS011;62122;41.112;16.694;2022-08-19T16:17:39;23.17;;;6.47;;
73791;SDS011;62122;41.112;16.694;2022-08-19T16:20:43;24.27;;;7.53;;
73791;SDS011;62122;41.112;16.694;2022-08-19T16:23:49;23.58;;;6.88;;
73791;SDS011;62122;41.112;16.694;2022-08-19T16:26:56;24.90;;;6.03;;
73791;SDS011;62122;41.112;16.694;2022-08-19T16:29:59;22.13;;;6.47;;
73791;SDS011;62122;41.112;16.694;2022-08-19T16:33:07;17.27;;;6.15;;
73791;SDS011;62122;41.112;16.694;2022-08-19T16:36:12;16.57;;;6.00;;
73791;SDS011;62122;41.112;16.694;2022-08-19T16:39:16;20.98;;;6.00;;
73791;SDS011;62122;41.112;16.694;2022-08-19T16:42:20;16.85;;;5.90;;
73791;SDS011;62122;41.112;16.694;2022-08-19T16:45:24;17.67;;;6.60;;
73791;SDS011;62122;41.112;16.694;2022-08-19T16:48:29;17.23;;;5.93;;
73791;SDS011;62122;41.112;16.694;2022-08-19T16:51:34;17.33;;;6.73;;
73791;SDS011;62122;41.112;16.694;2022-08-19T16:54:38;19.77;;;6.57;;
73791;SDS011;62122;41.112;16.694;2022-08-19T16:57:41;20.40;;;5.35;;
73791;SDS011;62122;41.112;16.694;2022-08-19T17:00:45;23.10;;;6.20;;
73791;SDS011;62122;41.112;16.694;2022-08-19T17:03:50;13.93;;;5.45;;
73791;SDS011;62122;41.112;16.694;2022-08-19T17:06:55;21.38;;;5.97;;
73791;SDS011;62122;41.112;16.694;2022-08-19T17:09:59;17.00;;;6.47;;
73791;SDS011;62122;41.112;16.694;2022-08-19T17:13:05;18.55;;;5.70;;
73791;SDS011;62122;41.112;16.694;2022-08-19T17:16:09;14.77;;;5.45;;
73791;SDS011;62122;41.112;16.694;2022-08-19T17:19:13;14.90;;;5.72;;
73791;SDS011;62122;41.112;16.694;2022-08-19T17:22:16;15.93;;;5.97;;
73791;SDS011;62122;41.112;16.694;2022-08-19T17:25:21;14.70;;;5.18;;
73791;SDS011;62122;41.112;16.694;2022-08-19T17:28:28;14.80;;;5.55;;
73791;SDS011;62122;41.112;16.694;2022-08-19T17:31:32;20.88;;;6.78;;
73791;SDS011;62122;41.112;16.694;2022-08-19T17:34:37;23.52;;;7.60;;
73791;SDS011;62122;41.112;16.694;2022-08-19T17:37:41;21.25;;;7.53;;
73791;SDS011;62122;41.112;16.694;2022-08-19T17:40:45;26.13;;;8.15;;
73791;SDS011;62122;41.112;16.694;2022-08-19T17:43:50;24.17;;;7.60;;
73791;SDS011;62122;41.112;16.694;2022-08-19T17:46:54;28.23;;;8.15;;
73791;SDS011;62122;41.112;16.694;2022-08-19T17:49:58;21.23;;;7.20;;
73791;SDS011;62122;41.112;16.694;2022-08-19T17:53:02;23.85;;;8.20;;
73791;SDS011;62122;41.112;16.694;2022-08-19T17:56:09;21.13;;;8.07;;
73791;SDS011;62122;41.112;16.694;2022-08-19T17:59:13;23.85;;;8.23;;
73791;SDS011;62122;41.112;16.694;2022-08-19T18:02:18;25.05;;;7.68;;
73791;SDS011;62122;41.112;16.694;2022-08-19T18:05:26;21.25;;;7.70;;
73791;SDS011;62122;41.112;16.694;2022-08-19T18:08:34;20.67;;;8.27;;
73791;SDS011;62122;41.112;16.694;2022-08-19T18:11:41;22.17;;;8.05;;
73791;SDS011;62122;41.112;16.694;2022-08-19T18:14:47;26.08;;;8.15;;
73791;SDS011;62122;41.112;16.694;2022-08-19T18:17:51;21.52;;;8.25;;
73791;SDS011;62122;41.112;16.694;2022-08-19T18:20:55;20.10;;;7.82;;